sensor_id;sensor_type;location;lat;lon;timestamp;P1;durP1;ratioP1;P2;durP2;ratioP2
8333;SDS011;4204;43.004;23.052;2022-09-09T00:01:58;10.93;;;9.80;;
8333;SDS011;4204;43.004;23.052;2022-09-09T00:04:31;12.20;;;10.40;;
8333;SDS011;4204;43.004;23.052;2022-09-09T00:07:03;10.37;;;9.23;;
8333;SDS011;4204;43.004;23.052;2022-09-09T00:09:36;12.30;;;9.57;;
8333;SDS011;4204;43.004;23.052;2022-09-09T00:12:11;9.97;;;8.87;;
8333;SDS011;4204;43.004;23.052;2022-09-09T00:14:44;10.00;;;9.00;;
8333;SDS011;4204;43.004;23.052;2022-09-09T00:17:19;11.27;;;8.27;;
8333;SDS011;4204;43.004;23.052;2022-09-09T00:19:58;10.70;;;9.60;;
8333;SDS011;4204;43.004;23.052;2022-09-09T00:22:31;10.53;;;9.20;;
8333;SDS011;4204;43.004;23.052;2022-09-09T00:25:02;10.23;;;9.13;;
8333;SDS011;4204;43.004;23.052;2022-09-09T00:27:39;11.33;;;10.13;;
8333;SDS011;4204;43.004;23.052;2022-09-09T00:30:15;10.20;;;9.20;;
8333;SDS011;4204;43.004;23.052;2022-09-09T00:32:45;10.87;;;9.77;;
8333;SDS011;4204;43.004;23.052;2022-09-09T00:35:16;10.43;;;9.23;;
8333;SDS011;4204;43.004;23.052;2022-09-09T00:37:50;9.87;;;8.90;;
8333;SDS011;4204;43.004;23.052;2022-09-09T00:40:24;11.07;;;9.90;;
8333;SDS011;4204;43.004;23.052;2022-09-09T00:43:02;11.47;;;9.83;;
8333;SDS011;4204;43.004;23.052;2022-09-09T00:45:52;12.20;;;9.50;;
8333;SDS011;4204;43.004;23.052;2022-09-09T00:48:33;10.60;;;9.40;;
8333;SDS011;4204;43.004;23.052;2022-09-09T00:51:13;10.63;;;9.53;;
8333;SDS011;4204;43.004;23.052;2022-09-09T00:53:56;11.67;;;10.47;;
8333;SDS011;4204;43.004;23.052;2022-09-09T00:56:36;10.37;;;9.40;;
8333;SDS011;4204;43.004;23.052;2022-09-09T00:59:12;12.50;;;10.17;;
8333;SDS011;4204;43.004;23.052;2022-09-09T01:01:49;11.17;;;10.00;;
8333;SDS011;4204;43.004;23.052;2022-09-09T01:04:20;12.87;;;9.13;;
8333;SDS011;4204;43.004;23.052;2022-09-09T01:06:58;10.57;;;9.13;;
8333;SDS011;4204;43.004;23.052;2022-09-09T01:09:41;12.23;;;9.80;;
8333;SDS011;4204;43.004;23.052;2022-09-09T01:12:23;9.90;;;8.90;;
8333;SDS011;4204;43.004;23.052;2022-09-09T01:14:56;12.13;;;9.90;;
8333;SDS011;4204;43.004;23.052;2022-09-09T01:17:31;10.63;;;9.50;;
8333;SDS011;4204;43.004;23.052;2022-09-09T01:20:08;11.00;;;9.90;;
8333;SDS011;4204;43.004;23.052;2022-09-09T01:22:48;10.87;;;9.67;;
8333;SDS011;4204;43.004;23.052;2022-09-09T01:25:29;10.87;;;9.73;;
8333;SDS011;4204;43.004;23.052;2022-09-09T01:28:22;12.43;;;10.57;;
8333;SDS011;4204;43.004;23.052;2022-09-09T01:30:59;11.97;;;10.10;;
8333;SDS011;4204;43.004;23.052;2022-09-09T01:33:32;11.93;;;10.27;;
8333;SDS011;4204;43.004;23.052;2022-09-09T01:36:00;11.57;;;10.33;;
8333;SDS011;4204;43.004;23.052;2022-09-09T01:38:38;10.67;;;9.57;;
8333;SDS011;4204;43.004;23.052;2022-09-09T01:41:07;11.40;;;9.93;;
8333;SDS011;4204;43.004;23.052;2022-09-09T01:43:44;10.60;;;9.50;;
8333;SDS011;4204;43.004;23.052;2022-09-09T01:46:12;13.13;;;10.20;;
8333;SDS011;4204;43.004;23.052;2022-09-09T01:48:41;11.37;;;10.23;;
8333;SDS011;4204;43.004;23.052;2022-09-09T01:51:10;11.27;;;9.30;;
8333;SDS011;4204;43.004;23.052;2022-09-09T01:53:38;14.43;;;9.90;;
8333;SDS011;4204;43.004;23.052;2022-09-09T01:56:12;12.33;;;10.03;;
8333;SDS011;4204;43.004;23.052;2022-09-09T01:58:54;10.97;;;9.77;;
8333;SDS011;4204;43.004;23.052;2022-09-09T02:01:31;11.67;;;10.37;;
8333;SDS011;4204;43.004;23.052;2022-09-09T02:04:11;13.27;;;10.63;;
8333;SDS011;4204;43.004;23.052;2022-09-09T02:06:51;10.63;;;9.53;;
8333;SDS011;4204;43.004;23.052;2022-09-09T02:09:27;9.93;;;8.87;;
8333;SDS011;4204;43.004;23.052;2022-09-09T02:12:00;14.97;;;9.93;;
8333;SDS011;4204;43.004;23.052;2022-09-09T02:14:47;10.57;;;9.47;;
8333;SDS011;4204;43.004;23.052;2022-09-09T02:17:20;11.20;;;9.73;;
8333;SDS011;4204;43.004;23.052;2022-09-09T02:20:06;11.73;;;9.53;;
8333;SDS011;4204;43.004;23.052;2022-09-09T02:22:44;11.80;;;9.67;;
8333;SDS011;4204;43.004;23.052;2022-09-09T02:25:18;11.30;;;9.53;;
8333;SDS011;4204;43.004;23.052;2022-09-09T02:27:56;12.20;;;10.00;;
8333;SDS011;4204;43.004;23.052;2022-09-09T02:30:26;11.47;;;9.93;;
8333;SDS011;4204;43.004;23.052;2022-09-09T02:32:58;13.43;;;10.43;;
8333;SDS011;4204;43.004;23.052;2022-09-09T02:35:40;11.90;;;10.57;;
8333;SDS011;4204;43.004;23.052;2022-09-09T02:38:10;12.53;;;10.13;;
8333;SDS011;4204;43.004;23.052;2022-09-09T02:40:46;11.87;;;10.17;;
8333;SDS011;4204;43.004;23.052;2022-09-09T02:43:14;13.67;;;9.97;;
8333;SDS011;4204;43.004;23.052;2022-09-09T02:45:47;12.10;;;10.00;;
8333;SDS011;4204;43.004;23.052;2022-09-09T02:48:20;10.80;;;9.70;;
8333;SDS011;4204;43.004;23.052;2022-09-09T02:50:54;12.07;;;10.77;;
8333;SDS011;4204;43.004;23.052;2022-09-09T02:53:33;12.77;;;10.67;;
8333;SDS011;4204;43.004;23.052;2022-09-09T02:56:09;11.27;;;10.07;;
8333;SDS011;4204;43.004;23.052;2022-09-09T02:58:43;11.87;;;10.67;;
8333;SDS011;4204;43.004;23.052;2022-09-09T03:01:13;13.17;;;10.23;;
8333;SDS011;4204;43.004;23.052;2022-09-09T03:03:41;11.23;;;10.07;;
8333;SDS011;4204;43.004;23.052;2022-09-09T03:06:14;14.43;;;10.57;;
8333;SDS011;4204;43.004;23.052;2022-09-09T03:08:46;12.07;;;10.40;;
8333;SDS011;4204;43.004;23.052;2022-09-09T03:11:18;12.33;;;10.03;;
8333;SDS011;4204;43.004;23.052;2022-09-09T03:13:45;12.73;;;10.13;;
8333;SDS011;4204;43.004;23.052;2022-09-09T03:16:16;12.43;;;10.63;;
8333;SDS011;4204;43.004;23.052;2022-09-09T03:18:47;14.43;;;10.13;;
8333;SDS011;4204;43.004;23.052;2022-09-09T03:21:15;12.07;;;10.63;;
8333;SDS011;4204;43.004;23.052;2022-09-09T03:23:44;14.10;;;10.50;;
8333;SDS011;4204;43.004;23.052;2022-09-09T03:26:12;13.60;;;11.10;;
8333;SDS011;4204;43.004;23.052;2022-09-09T03:28:44;13.33;;;11.03;;
8333;SDS011;4204;43.004;23.052;2022-09-09T03:31:16;12.47;;;11.03;;
8333;SDS011;4204;43.004;23.052;2022-09-09T03:33:46;14.63;;;10.60;;
8333;SDS011;4204;43.004;23.052;2022-09-09T03:36:15;11.80;;;10.23;;
8333;SDS011;4204;43.004;23.052;2022-09-09T03:38:44;12.50;;;10.83;;
8333;SDS011;4204;43.004;23.052;2022-09-09T03:41:12;11.57;;;10.37;;
8333;SDS011;4204;43.004;23.052;2022-09-09T03:43:40;15.20;;;10.53;;
8333;SDS011;4204;43.004;23.052;2022-09-09T03:46:08;14.20;;;10.90;;
8333;SDS011;4204;43.004;23.052;2022-09-09T03:48:37;12.07;;;10.80;;
8333;SDS011;4204;43.004;23.052;2022-09-09T03:51:05;12.53;;;11.23;;
8333;SDS011;4204;43.004;23.052;2022-09-09T03:53:34;11.80;;;10.57;;
8333;SDS011;4204;43.004;23.052;2022-09-09T03:56:04;13.83;;;12.00;;
8333;SDS011;4204;43.004;23.052;2022-09-09T03:58:33;13.83;;;12.17;;
8333;SDS011;4204;43.004;23.052;2022-09-09T04:01:06;11.90;;;10.67;;
8333;SDS011;4204;43.004;23.052;2022-09-09T04:03:38;15.70;;;11.07;;
8333;SDS011;4204;43.004;23.052;2022-09-09T04:06:07;12.80;;;11.50;;
8333;SDS011;4204;43.004;23.052;2022-09-09T04:08:37;12.10;;;10.90;;
8333;SDS011;4204;43.004;23.052;2022-09-09T04:11:06;12.20;;;10.93;;
8333;SDS011;4204;43.004;23.052;2022-09-09T04:13:35;11.43;;;10.23;;
8333;SDS011;4204;43.004;23.052;2022-09-09T04:16:06;13.07;;;11.37;;
8333;SDS011;4204;43.004;23.052;2022-09-09T04:18:38;10.83;;;9.73;;
8333;SDS011;4204;43.004;23.052;2022-09-09T04:21:08;11.10;;;10.00;;
8333;SDS011;4204;43.004;23.052;2022-09-09T04:23:36;12.97;;;10.40;;
8333;SDS011;4204;43.004;23.052;2022-09-09T04:26:04;13.80;;;10.13;;
8333;SDS011;4204;43.004;23.052;2022-09-09T04:28:34;12.00;;;10.47;;
8333;SDS011;4204;43.004;23.052;2022-09-09T04:31:07;11.90;;;10.53;;
8333;SDS011;4204;43.004;23.052;2022-09-09T04:33:40;14.07;;;11.20;;
8333;SDS011;4204;43.004;23.052;2022-09-09T04:36:09;12.83;;;11.23;;
8333;SDS011;4204;43.004;23.052;2022-09-09T04:38:38;12.30;;;10.80;;
8333;SDS011;4204;43.004;23.052;2022-09-09T04:41:06;11.57;;;10.37;;
8333;SDS011;4204;43.004;23.052;2022-09-09T04:43:38;12.00;;;10.70;;
8333;SDS011;4204;43.004;23.052;2022-09-09T04:46:07;12.93;;;11.63;;
8333;SDS011;4204;43.004;23.052;2022-09-09T04:48:36;13.37;;;11.97;;
8333;SDS011;4204;43.004;23.052;2022-09-09T04:51:09;12.73;;;10.83;;
8333;SDS011;4204;43.004;23.052;2022-09-09T04:53:39;11.70;;;10.50;;
8333;SDS011;4204;43.004;23.052;2022-09-09T04:56:08;11.47;;;10.23;;
8333;SDS011;4204;43.004;23.052;2022-09-09T04:58:41;11.40;;;10.03;;
8333;SDS011;4204;43.004;23.052;2022-09-09T05:01:10;11.43;;;10.33;;
8333;SDS011;4204;43.004;23.052;2022-09-09T05:03:40;16.23;;;11.03;;
8333;SDS011;4204;43.004;23.052;2022-09-09T05:06:13;12.93;;;11.63;;
8333;SDS011;4204;43.004;23.052;2022-09-09T05:08:43;12.03;;;10.73;;
8333;SDS011;4204;43.004;23.052;2022-09-09T05:11:13;12.63;;;10.87;;
8333;SDS011;4204;43.004;23.052;2022-09-09T05:13:43;11.60;;;10.40;;
8333;SDS011;4204;43.004;23.052;2022-09-09T05:16:10;12.07;;;10.07;;
8333;SDS011;4204;43.004;23.052;2022-09-09T05:18:38;12.53;;;10.27;;
8333;SDS011;4204;43.004;23.052;2022-09-09T05:21:07;10.83;;;9.40;;
8333;SDS011;4204;43.004;23.052;2022-09-09T05:23:37;10.07;;;9.07;;
8333;SDS011;4204;43.004;23.052;2022-09-09T05:26:05;9.70;;;8.70;;
8333;SDS011;4204;43.004;23.052;2022-09-09T05:28:34;9.30;;;8.40;;
8333;SDS011;4204;43.004;23.052;2022-09-09T05:31:03;10.57;;;9.53;;
8333;SDS011;4204;43.004;23.052;2022-09-09T05:33:34;11.03;;;9.40;;
8333;SDS011;4204;43.004;23.052;2022-09-09T05:36:04;11.90;;;9.30;;
8333;SDS011;4204;43.004;23.052;2022-09-09T05:38:34;11.33;;;8.73;;
8333;SDS011;4204;43.004;23.052;2022-09-09T05:41:04;9.77;;;8.23;;
8333;SDS011;4204;43.004;23.052;2022-09-09T05:43:32;8.10;;;7.30;;
8333;SDS011;4204;43.004;23.052;2022-09-09T05:46:01;10.27;;;8.03;;
8333;SDS011;4204;43.004;23.052;2022-09-09T05:48:32;8.90;;;8.00;;
8333;SDS011;4204;43.004;23.052;2022-09-09T05:51:01;8.93;;;7.67;;
8333;SDS011;4204;43.004;23.052;2022-09-09T05:53:31;8.20;;;7.40;;
8333;SDS011;4204;43.004;23.052;2022-09-09T05:56:00;7.67;;;6.87;;
8333;SDS011;4204;43.004;23.052;2022-09-09T05:58:31;9.03;;;8.13;;
8333;SDS011;4204;43.004;23.052;2022-09-09T06:01:03;8.40;;;7.60;;
8333;SDS011;4204;43.004;23.052;2022-09-09T06:03:33;8.60;;;7.20;;
8333;SDS011;4204;43.004;23.052;2022-09-09T06:06:02;9.30;;;6.57;;
8333;SDS011;4204;43.004;23.052;2022-09-09T06:08:32;7.30;;;6.67;;
8333;SDS011;4204;43.004;23.052;2022-09-09T06:11:03;9.77;;;6.17;;
8333;SDS011;4204;43.004;23.052;2022-09-09T06:13:34;6.90;;;6.20;;
8333;SDS011;4204;43.004;23.052;2022-09-09T06:16:03;8.30;;;6.70;;
8333;SDS011;4204;43.004;23.052;2022-09-09T06:18:33;7.00;;;6.27;;
8333;SDS011;4204;43.004;23.052;2022-09-09T06:21:01;8.33;;;6.53;;
8333;SDS011;4204;43.004;23.052;2022-09-09T06:23:32;6.80;;;6.20;;
8333;SDS011;4204;43.004;23.052;2022-09-09T06:26:02;7.33;;;6.60;;
8333;SDS011;4204;43.004;23.052;2022-09-09T06:28:35;7.50;;;6.70;;
8333;SDS011;4204;43.004;23.052;2022-09-09T06:31:04;7.20;;;6.50;;
8333;SDS011;4204;43.004;23.052;2022-09-09T06:33:34;7.17;;;6.47;;
8333;SDS011;4204;43.004;23.052;2022-09-09T06:36:04;7.37;;;5.93;;
8333;SDS011;4204;43.004;23.052;2022-09-09T06:38:32;6.37;;;5.77;;
8333;SDS011;4204;43.004;23.052;2022-09-09T06:41:00;6.00;;;5.40;;
8333;SDS011;4204;43.004;23.052;2022-09-09T06:43:29;7.13;;;6.30;;
8333;SDS011;4204;43.004;23.052;2022-09-09T06:45:58;6.73;;;6.13;;
8333;SDS011;4204;43.004;23.052;2022-09-09T06:48:28;7.07;;;6.37;;
8333;SDS011;4204;43.004;23.052;2022-09-09T06:51:03;6.70;;;5.90;;
8333;SDS011;4204;43.004;23.052;2022-09-09T06:53:32;6.37;;;5.73;;
8333;SDS011;4204;43.004;23.052;2022-09-09T06:56:02;7.17;;;6.47;;
8333;SDS011;4204;43.004;23.052;2022-09-09T06:58:45;6.87;;;6.27;;
8333;SDS011;4204;43.004;23.052;2022-09-09T07:01:22;11.40;;;7.60;;
8333;SDS011;4204;43.004;23.052;2022-09-09T07:03:51;8.27;;;6.27;;
8333;SDS011;4204;43.004;23.052;2022-09-09T07:06:21;7.27;;;6.57;;
8333;SDS011;4204;43.004;23.052;2022-09-09T07:08:52;7.87;;;6.57;;
8333;SDS011;4204;43.004;23.052;2022-09-09T07:11:22;7.60;;;6.67;;
8333;SDS011;4204;43.004;23.052;2022-09-09T07:13:52;7.10;;;6.43;;
8333;SDS011;4204;43.004;23.052;2022-09-09T07:16:21;7.27;;;6.57;;
8333;SDS011;4204;43.004;23.052;2022-09-09T07:18:50;6.70;;;6.10;;
8333;SDS011;4204;43.004;23.052;2022-09-09T07:21:19;10.67;;;6.40;;
8333;SDS011;4204;43.004;23.052;2022-09-09T07:23:48;8.00;;;6.40;;
8333;SDS011;4204;43.004;23.052;2022-09-09T07:26:17;8.77;;;7.87;;
8333;SDS011;4204;43.004;23.052;2022-09-09T07:28:46;8.57;;;6.77;;
8333;SDS011;4204;43.004;23.052;2022-09-09T07:31:16;6.90;;;6.20;;
8333;SDS011;4204;43.004;23.052;2022-09-09T07:33:47;7.47;;;6.67;;
8333;SDS011;4204;43.004;23.052;2022-09-09T07:36:16;6.77;;;6.07;;
8333;SDS011;4204;43.004;23.052;2022-09-09T07:38:48;7.57;;;6.83;;
8333;SDS011;4204;43.004;23.052;2022-09-09T07:41:18;7.90;;;6.30;;
8333;SDS011;4204;43.004;23.052;2022-09-09T07:43:49;7.17;;;6.47;;
8333;SDS011;4204;43.004;23.052;2022-09-09T07:46:17;9.77;;;6.60;;
8333;SDS011;4204;43.004;23.052;2022-09-09T07:48:48;7.90;;;6.57;;
8333;SDS011;4204;43.004;23.052;2022-09-09T07:51:20;7.13;;;6.43;;
8333;SDS011;4204;43.004;23.052;2022-09-09T07:53:51;8.90;;;6.47;;
8333;SDS011;4204;43.004;23.052;2022-09-09T07:56:20;9.30;;;6.90;;
8333;SDS011;4204;43.004;23.052;2022-09-09T07:58:50;8.87;;;6.50;;
8333;SDS011;4204;43.004;23.052;2022-09-09T08:01:20;7.37;;;6.67;;
8333;SDS011;4204;43.004;23.052;2022-09-09T08:03:54;8.40;;;6.73;;
8333;SDS011;4204;43.004;23.052;2022-09-09T08:06:25;13.27;;;7.20;;
8333;SDS011;4204;43.004;23.052;2022-09-09T08:08:54;7.47;;;6.77;;
8333;SDS011;4204;43.004;23.052;2022-09-09T08:11:23;7.30;;;6.60;;
8333;SDS011;4204;43.004;23.052;2022-09-09T08:13:53;6.77;;;6.07;;
8333;SDS011;4204;43.004;23.052;2022-09-09T08:16:22;7.80;;;6.70;;
8333;SDS011;4204;43.004;23.052;2022-09-09T08:18:52;9.20;;;7.27;;
8333;SDS011;4204;43.004;23.052;2022-09-09T08:21:21;9.10;;;7.70;;
8333;SDS011;4204;43.004;23.052;2022-09-09T08:23:51;8.70;;;7.63;;
8333;SDS011;4204;43.004;23.052;2022-09-09T08:26:21;8.63;;;7.73;;
8333;SDS011;4204;43.004;23.052;2022-09-09T08:28:50;8.07;;;7.27;;
8333;SDS011;4204;43.004;23.052;2022-09-09T08:31:20;8.27;;;7.10;;
8333;SDS011;4204;43.004;23.052;2022-09-09T08:33:49;8.83;;;7.50;;
8333;SDS011;4204;43.004;23.052;2022-09-09T08:36:18;10.07;;;7.90;;
8333;SDS011;4204;43.004;23.052;2022-09-09T08:38:47;9.30;;;8.23;;
8333;SDS011;4204;43.004;23.052;2022-09-09T08:41:26;10.67;;;9.67;;
8333;SDS011;4204;43.004;23.052;2022-09-09T08:44:06;8.17;;;7.37;;
8333;SDS011;4204;43.004;23.052;2022-09-09T08:46:42;8.27;;;7.47;;
8333;SDS011;4204;43.004;23.052;2022-09-09T08:49:22;9.10;;;7.80;;
8333;SDS011;4204;43.004;23.052;2022-09-09T08:52:09;9.07;;;8.03;;
8333;SDS011;4204;43.004;23.052;2022-09-09T08:54:45;9.67;;;8.67;;
8333;SDS011;4204;43.004;23.052;2022-09-09T08:57:15;8.90;;;7.73;;
8333;SDS011;4204;43.004;23.052;2022-09-09T08:59:50;12.50;;;8.70;;
8333;SDS011;4204;43.004;23.052;2022-09-09T09:02:21;9.67;;;8.20;;
8333;SDS011;4204;43.004;23.052;2022-09-09T09:04:58;9.93;;;8.37;;
8333;SDS011;4204;43.004;23.052;2022-09-09T09:07:42;8.97;;;8.07;;
8333;SDS011;4204;43.004;23.052;2022-09-09T09:10:34;10.20;;;9.20;;
8333;SDS011;4204;43.004;23.052;2022-09-09T09:13:17;8.87;;;7.97;;
8333;SDS011;4204;43.004;23.052;2022-09-09T09:15:50;9.40;;;8.50;;
8333;SDS011;4204;43.004;23.052;2022-09-09T09:18:23;8.53;;;7.73;;
8333;SDS011;4204;43.004;23.052;2022-09-09T09:20:54;9.93;;;8.93;;
8333;SDS011;4204;43.004;23.052;2022-09-09T09:23:33;9.10;;;8.20;;
8333;SDS011;4204;43.004;23.052;2022-09-09T09:26:09;9.43;;;8.53;;
8333;SDS011;4204;43.004;23.052;2022-09-09T09:28:39;9.30;;;7.97;;
8333;SDS011;4204;43.004;23.052;2022-09-09T09:31:12;8.90;;;8.07;;
8333;SDS011;4204;43.004;23.052;2022-09-09T09:33:45;11.70;;;8.90;;
8333;SDS011;4204;43.004;23.052;2022-09-09T09:36:17;10.97;;;8.80;;
8333;SDS011;4204;43.004;23.052;2022-09-09T09:38:55;10.50;;;9.47;;
8333;SDS011;4204;43.004;23.052;2022-09-09T09:41:31;11.70;;;9.40;;
8333;SDS011;4204;43.004;23.052;2022-09-09T09:44:03;11.03;;;9.50;;
8333;SDS011;4204;43.004;23.052;2022-09-09T09:46:31;12.33;;;9.80;;
8333;SDS011;4204;43.004;23.052;2022-09-09T09:49:09;11.53;;;9.23;;
8333;SDS011;4204;43.004;23.052;2022-09-09T09:51:40;11.63;;;9.83;;
8333;SDS011;4204;43.004;23.052;2022-09-09T09:54:20;10.47;;;9.47;;
8333;SDS011;4204;43.004;23.052;2022-09-09T09:57:07;11.13;;;9.30;;
8333;SDS011;4204;43.004;23.052;2022-09-09T09:59:36;10.30;;;8.77;;
8333;SDS011;4204;43.004;23.052;2022-09-09T10:02:14;10.80;;;9.30;;
8333;SDS011;4204;43.004;23.052;2022-09-09T10:04:45;10.60;;;9.30;;
8333;SDS011;4204;43.004;23.052;2022-09-09T10:07:17;10.27;;;9.27;;
8333;SDS011;4204;43.004;23.052;2022-09-09T10:09:48;10.77;;;9.50;;
8333;SDS011;4204;43.004;23.052;2022-09-09T10:12:24;10.87;;;9.77;;
8333;SDS011;4204;43.004;23.052;2022-09-09T10:15:06;10.50;;;9.50;;
8333;SDS011;4204;43.004;23.052;2022-09-09T10:17:50;10.43;;;9.37;;
8333;SDS011;4204;43.004;23.052;2022-09-09T10:20:28;11.37;;;8.90;;
8333;SDS011;4204;43.004;23.052;2022-09-09T10:23:06;10.80;;;9.57;;
8333;SDS011;4204;43.004;23.052;2022-09-09T10:25:49;10.87;;;9.70;;
8333;SDS011;4204;43.004;23.052;2022-09-09T10:28:33;10.17;;;9.27;;
8333;SDS011;4204;43.004;23.052;2022-09-09T10:31:25;11.80;;;9.33;;
8333;SDS011;4204;43.004;23.052;2022-09-09T10:34:01;11.77;;;10.20;;
8333;SDS011;4204;43.004;23.052;2022-09-09T10:36:37;11.50;;;9.70;;
8333;SDS011;4204;43.004;23.052;2022-09-09T10:39:14;10.73;;;9.27;;
8333;SDS011;4204;43.004;23.052;2022-09-09T10:41:55;10.37;;;9.37;;
8333;SDS011;4204;43.004;23.052;2022-09-09T10:44:41;10.40;;;9.40;;
8333;SDS011;4204;43.004;23.052;2022-09-09T10:47:35;11.67;;;10.47;;
8333;SDS011;4204;43.004;23.052;2022-09-09T10:50:20;11.73;;;10.63;;
8333;SDS011;4204;43.004;23.052;2022-09-09T10:53:02;13.03;;;11.73;;
8333;SDS011;4204;43.004;23.052;2022-09-09T10:55:40;12.80;;;11.43;;
8333;SDS011;4204;43.004;23.052;2022-09-09T10:58:12;14.03;;;12.13;;
8333;SDS011;4204;43.004;23.052;2022-09-09T11:00:45;14.37;;;11.70;;
8333;SDS011;4204;43.004;23.052;2022-09-09T11:03:19;13.83;;;12.43;;
8333;SDS011;4204;43.004;23.052;2022-09-09T11:05:49;13.87;;;12.37;;
8333;SDS011;4204;43.004;23.052;2022-09-09T11:08:22;15.67;;;11.53;;
8333;SDS011;4204;43.004;23.052;2022-09-09T11:10:53;12.83;;;11.57;;
8333;SDS011;4204;43.004;23.052;2022-09-09T11:13:33;12.80;;;11.50;;
8333;SDS011;4204;43.004;23.052;2022-09-09T11:16:16;13.03;;;11.73;;
8333;SDS011;4204;43.004;23.052;2022-09-09T11:18:49;14.17;;;11.70;;
8333;SDS011;4204;43.004;23.052;2022-09-09T11:21:17;13.73;;;12.27;;
8333;SDS011;4204;43.004;23.052;2022-09-09T11:23:51;13.57;;;12.17;;
8333;SDS011;4204;43.004;23.052;2022-09-09T11:26:26;13.80;;;12.50;;
8333;SDS011;4204;43.004;23.052;2022-09-09T11:29:04;13.67;;;12.37;;
8333;SDS011;4204;43.004;23.052;2022-09-09T11:31:44;13.03;;;11.63;;
8333;SDS011;4204;43.004;23.052;2022-09-09T11:34:23;12.43;;;10.40;;
8333;SDS011;4204;43.004;23.052;2022-09-09T11:37:16;13.60;;;11.00;;
8333;SDS011;4204;43.004;23.052;2022-09-09T11:40:09;12.30;;;10.93;;
8333;SDS011;4204;43.004;23.052;2022-09-09T11:42:44;14.07;;;10.67;;
8333;SDS011;4204;43.004;23.052;2022-09-09T11:45:21;11.87;;;10.67;;
8333;SDS011;4204;43.004;23.052;2022-09-09T11:47:51;12.93;;;10.90;;
8333;SDS011;4204;43.004;23.052;2022-09-09T11:50:28;11.83;;;10.67;;
8333;SDS011;4204;43.004;23.052;2022-09-09T11:53:05;11.60;;;10.50;;
8333;SDS011;4204;43.004;23.052;2022-09-09T11:55:59;10.53;;;9.43;;
8333;SDS011;4204;43.004;23.052;2022-09-09T11:58:30;10.73;;;9.60;;
8333;SDS011;4204;43.004;23.052;2022-09-09T12:01:24;9.90;;;8.90;;
8333;SDS011;4204;43.004;23.052;2022-09-09T12:04:00;8.90;;;7.97;;
8333;SDS011;4204;43.004;23.052;2022-09-09T12:06:50;11.47;;;8.77;;
8333;SDS011;4204;43.004;23.052;2022-09-09T12:09:22;9.57;;;8.07;;
8333;SDS011;4204;43.004;23.052;2022-09-09T12:12:04;9.20;;;8.30;;
8333;SDS011;4204;43.004;23.052;2022-09-09T12:14:37;9.67;;;8.67;;
8333;SDS011;4204;43.004;23.052;2022-09-09T12:17:15;9.57;;;8.17;;
8333;SDS011;4204;43.004;23.052;2022-09-09T12:19:46;10.73;;;8.40;;
8333;SDS011;4204;43.004;23.052;2022-09-09T12:22:17;10.40;;;9.07;;
8333;SDS011;4204;43.004;23.052;2022-09-09T12:24:55;11.67;;;8.90;;
8333;SDS011;4204;43.004;23.052;2022-09-09T12:27:31;10.43;;;8.30;;
8333;SDS011;4204;43.004;23.052;2022-09-09T12:30:03;10.60;;;8.70;;
8333;SDS011;4204;43.004;23.052;2022-09-09T12:32:37;9.30;;;8.30;;
8333;SDS011;4204;43.004;23.052;2022-09-09T12:35:09;10.03;;;8.77;;
8333;SDS011;4204;43.004;23.052;2022-09-09T12:37:40;9.57;;;8.13;;
8333;SDS011;4204;43.004;23.052;2022-09-09T12:40:19;10.43;;;9.33;;
8333;SDS011;4204;43.004;23.052;2022-09-09T12:42:48;10.57;;;9.13;;
8333;SDS011;4204;43.004;23.052;2022-09-09T12:45:18;10.83;;;8.83;;
8333;SDS011;4204;43.004;23.052;2022-09-09T12:47:49;10.03;;;9.03;;
8333;SDS011;4204;43.004;23.052;2022-09-09T12:50:22;13.27;;;9.13;;
8333;SDS011;4204;43.004;23.052;2022-09-09T12:52:52;12.63;;;9.03;;
8333;SDS011;4204;43.004;23.052;2022-09-09T12:55:25;12.00;;;8.57;;
8333;SDS011;4204;43.004;23.052;2022-09-09T12:57:56;10.87;;;9.57;;
8333;SDS011;4204;43.004;23.052;2022-09-09T13:00:25;10.67;;;9.30;;
8333;SDS011;4204;43.004;23.052;2022-09-09T13:02:56;11.77;;;9.10;;
8333;SDS011;4204;43.004;23.052;2022-09-09T13:05:25;11.63;;;9.40;;
8333;SDS011;4204;43.004;23.052;2022-09-09T13:08:00;10.37;;;9.13;;
8333;SDS011;4204;43.004;23.052;2022-09-09T13:10:30;11.63;;;9.37;;
8333;SDS011;4204;43.004;23.052;2022-09-09T13:13:02;10.97;;;8.93;;
8333;SDS011;4204;43.004;23.052;2022-09-09T13:15:31;10.90;;;9.80;;
8333;SDS011;4204;43.004;23.052;2022-09-09T13:18:00;10.90;;;9.80;;
8333;SDS011;4204;43.004;23.052;2022-09-09T13:20:32;10.70;;;9.10;;
8333;SDS011;4204;43.004;23.052;2022-09-09T13:23:00;10.50;;;9.40;;
8333;SDS011;4204;43.004;23.052;2022-09-09T13:25:28;11.63;;;10.43;;
8333;SDS011;4204;43.004;23.052;2022-09-09T13:27:58;10.80;;;9.70;;
8333;SDS011;4204;43.004;23.052;2022-09-09T13:30:30;10.90;;;9.73;;
8333;SDS011;4204;43.004;23.052;2022-09-09T13:33:18;10.83;;;9.73;;
8333;SDS011;4204;43.004;23.052;2022-09-09T13:35:49;10.33;;;9.40;;
8333;SDS011;4204;43.004;23.052;2022-09-09T13:38:20;9.97;;;8.80;;
8333;SDS011;4204;43.004;23.052;2022-09-09T13:40:52;11.00;;;9.90;;
8333;SDS011;4204;43.004;23.052;2022-09-09T13:43:23;10.57;;;8.87;;
8333;SDS011;4204;43.004;23.052;2022-09-09T13:45:53;9.87;;;8.70;;
8333;SDS011;4204;43.004;23.052;2022-09-09T13:48:25;11.50;;;9.27;;
8333;SDS011;4204;43.004;23.052;2022-09-09T13:50:53;9.83;;;8.77;;
8333;SDS011;4204;43.004;23.052;2022-09-09T13:53:23;9.53;;;8.27;;
8333;SDS011;4204;43.004;23.052;2022-09-09T13:55:51;9.60;;;8.60;;
8333;SDS011;4204;43.004;23.052;2022-09-09T13:58:19;8.93;;;8.00;;
8333;SDS011;4204;43.004;23.052;2022-09-09T14:00:48;10.53;;;9.07;;
8333;SDS011;4204;43.004;23.052;2022-09-09T14:03:16;10.87;;;8.63;;
8333;SDS011;4204;43.004;23.052;2022-09-09T14:05:45;13.67;;;8.70;;
8333;SDS011;4204;43.004;23.052;2022-09-09T14:08:16;9.83;;;8.23;;
8333;SDS011;4204;43.004;23.052;2022-09-09T14:10:49;9.60;;;7.37;;
8333;SDS011;4204;43.004;23.052;2022-09-09T14:13:17;8.80;;;7.43;;
8333;SDS011;4204;43.004;23.052;2022-09-09T14:15:48;10.53;;;7.77;;
8333;SDS011;4204;43.004;23.052;2022-09-09T14:18:16;8.13;;;7.20;;
8333;SDS011;4204;43.004;23.052;2022-09-09T14:20:47;8.37;;;7.47;;
8333;SDS011;4204;43.004;23.052;2022-09-09T14:23:16;10.03;;;7.70;;
8333;SDS011;4204;43.004;23.052;2022-09-09T14:25:44;11.53;;;7.83;;
8333;SDS011;4204;43.004;23.052;2022-09-09T14:28:12;8.63;;;7.03;;
8333;SDS011;4204;43.004;23.052;2022-09-09T14:30:41;8.23;;;6.53;;
8333;SDS011;4204;43.004;23.052;2022-09-09T14:33:11;8.27;;;6.87;;
8333;SDS011;4204;43.004;23.052;2022-09-09T14:35:41;7.50;;;6.37;;
8333;SDS011;4204;43.004;23.052;2022-09-09T14:38:11;9.40;;;7.13;;
8333;SDS011;4204;43.004;23.052;2022-09-09T14:40:40;8.30;;;6.83;;
8333;SDS011;4204;43.004;23.052;2022-09-09T14:43:09;6.90;;;6.20;;
8333;SDS011;4204;43.004;23.052;2022-09-09T14:45:38;6.53;;;5.40;;
8333;SDS011;4204;43.004;23.052;2022-09-09T14:48:06;7.40;;;5.80;;
8333;SDS011;4204;43.004;23.052;2022-09-09T14:50:34;6.60;;;5.97;;
8333;SDS011;4204;43.004;23.052;2022-09-09T14:53:05;7.67;;;5.47;;
8333;SDS011;4204;43.004;23.052;2022-09-09T14:55:36;6.23;;;4.50;;
8333;SDS011;4204;43.004;23.052;2022-09-09T14:58:04;5.97;;;4.80;;
8333;SDS011;4204;43.004;23.052;2022-09-09T15:00:33;6.57;;;4.53;;
8333;SDS011;4204;43.004;23.052;2022-09-09T15:03:02;4.97;;;4.40;;
8333;SDS011;4204;43.004;23.052;2022-09-09T15:05:30;5.90;;;4.00;;
8333;SDS011;4204;43.004;23.052;2022-09-09T15:07:57;5.23;;;3.90;;
8333;SDS011;4204;43.004;23.052;2022-09-09T15:10:25;9.93;;;4.97;;
8333;SDS011;4204;43.004;23.052;2022-09-09T15:12:54;5.80;;;4.80;;
8333;SDS011;4204;43.004;23.052;2022-09-09T15:15:23;5.97;;;4.57;;
8333;SDS011;4204;43.004;23.052;2022-09-09T15:17:50;5.93;;;4.30;;
8333;SDS011;4204;43.004;23.052;2022-09-09T15:20:18;6.20;;;4.73;;
8333;SDS011;4204;43.004;23.052;2022-09-09T15:22:45;7.80;;;4.93;;